sensor_id;sensor_type;location;lat;lon;timestamp;pressure;altitude;pressure_sealevel;temperature;humidity
19128;BME280;9696;53.686;10.094;2023-05-02T00:02:25;101322.88;;;10.81;100.00
19128;BME280;9696;53.686;10.094;2023-05-02T00:04:56;101335.03;;;10.94;100.00
19128;BME280;9696;53.686;10.094;2023-05-02T00:07:25;101337.53;;;10.84;100.00
19128;BME280;9696;53.686;10.094;2023-05-02T00:09:54;101326.19;;;10.83;100.00
19128;BME280;9696;53.686;10.094;2023-05-02T00:12:25;101333.81;;;10.86;100.00
19128;BME280;9696;53.686;10.094;2023-05-02T00:14:54;101326.94;;;10.74;100.00
19128;BME280;9696;53.686;10.094;2023-05-02T00:17:23;101332.38;;;10.82;100.00
19128;BME280;9696;53.686;10.094;2023-05-02T00:19:53;101329.41;;;10.87;100.00
19128;BME280;9696;53.686;10.094;2023-05-02T00:22:22;101331.19;;;10.86;100.00
19128;BME280;9696;53.686;10.094;2023-05-02T00:24:55;101331.19;;;10.86;100.00
19128;BME280;9696;53.686;10.094;2023-05-02T00:27:26;101329.91;;;10.92;100.00
19128;BME280;9696;53.686;10.094;2023-05-02T00:29:55;101329.19;;;10.79;100.00
19128;BME280;9696;53.686;10.094;2023-05-02T00:32:26;101335.16;;;10.81;100.00
19128;BME280;9696;53.686;10.094;2023-05-02T00:34:55;101331.94;;;10.77;100.00
19128;BME280;9696;53.686;10.094;2023-05-02T00:37:26;101331.09;;;10.88;100.00
19128;BME280;9696;53.686;10.094;2023-05-02T00:39:56;101333.84;;;10.98;100.00
19128;BME280;9696;53.686;10.094;2023-05-02T00:42:27;101343.03;;;10.92;100.00
19128;BME280;9696;53.686;10.094;2023-05-02T00:44:58;101338.84;;;10.78;100.00
19128;BME280;9696;53.686;10.094;2023-05-02T00:47:27;101342.53;;;10.76;100.00
19128;BME280;9696;53.686;10.094;2023-05-02T00:49:56;101338.97;;;10.88;100.00
19128;BME280;9696;53.686;10.094;2023-05-02T00:52:28;101334.44;;;10.79;100.00
19128;BME280;9696;53.686;10.094;2023-05-02T00:54:57;101343.50;;;10.75;100.00
19128;BME280;9696;53.686;10.094;2023-05-02T00:57:28;101347.19;;;10.95;100.00
19128;BME280;9696;53.686;10.094;2023-05-02T00:59:58;101343.63;;;10.62;100.00
19128;BME280;9696;53.686;10.094;2023-05-02T01:02:36;101344.47;;;10.85;100.00
19128;BME280;9696;53.686;10.094;2023-05-02T01:05:16;101344.56;;;10.83;100.00
19128;BME280;9696;53.686;10.094;2023-05-02T01:08:07;101348.28;;;10.70;100.00
19128;BME280;9696;53.686;10.094;2023-05-02T01:10:47;101349.31;;;10.78;100.00
19128;BME280;9696;53.686;10.094;2023-05-02T01:13:21;101351.94;;;10.78;100.00
19128;BME280;9696;53.686;10.094;2023-05-02T01:15:54;101341.47;;;10.78;100.00
19128;BME280;9696;53.686;10.094;2023-05-02T01:18:28;101345.50;;;10.71;100.00
19128;BME280;9696;53.686;10.094;2023-05-02T01:21:02;101355.56;;;10.66;100.00
19128;BME280;9696;53.686;10.094;2023-05-02T01:23:37;101349.81;;;10.61;100.00
19128;BME280;9696;53.686;10.094;2023-05-02T01:26:18;101354.22;;;10.72;100.00
19128;BME280;9696;53.686;10.094;2023-05-02T01:28:57;101363.16;;;10.58;100.00
19128;BME280;9696;53.686;10.094;2023-05-02T01:31:28;101349.06;;;10.48;100.00
19128;BME280;9696;53.686;10.094;2023-05-02T01:34:00;101356.59;;;10.42;100.00
19128;BME280;9696;53.686;10.094;2023-05-02T01:36:31;101364.09;;;10.46;100.00
19128;BME280;9696;53.686;10.094;2023-05-02T01:39:02;101367.75;;;10.32;100.00
19128;BME280;9696;53.686;10.094;2023-05-02T01:41:34;101366.47;;;10.38;100.00
19128;BME280;9696;53.686;10.094;2023-05-02T01:44:07;101377.31;;;10.33;100.00
19128;BME280;9696;53.686;10.094;2023-05-02T01:46:40;101375.75;;;10.31;100.00
19128;BME280;9696;53.686;10.094;2023-05-02T01:49:11;101381.72;;;10.33;100.00
19128;BME280;9696;53.686;10.094;2023-05-02T01:51:44;101383.25;;;10.35;100.00
19128;BME280;9696;53.686;10.094;2023-05-02T01:54:16;101394.34;;;10.39;100.00
19128;BME280;9696;53.686;10.094;2023-05-02T01:56:46;101394.31;;;10.28;100.00
19128;BME280;9696;53.686;10.094;2023-05-02T01:59:19;101398.97;;;10.35;100.00
19128;BME280;9696;53.686;10.094;2023-05-02T02:01:51;101397.34;;;10.34;100.00
19128;BME280;9696;53.686;10.094;2023-05-02T02:04:23;101404.19;;;10.24;100.00
19128;BME280;9696;53.686;10.094;2023-05-02T02:07:03;101407.59;;;10.37;100.00
19128;BME280;9696;53.686;10.094;2023-05-02T02:09:34;101408.44;;;10.38;100.00
19128;BME280;9696;53.686;10.094;2023-05-02T02:12:07;101407.44;;;10.28;100.00
19128;BME280;9696;53.686;10.094;2023-05-02T02:14:40;101399.81;;;10.36;100.00
19128;BME280;9696;53.686;10.094;2023-05-02T02:17:14;101404.28;;;10.47;100.00
19128;BME280;9696;53.686;10.094;2023-05-02T02:19:45;101395.84;;;10.54;100.00
19128;BME280;9696;53.686;10.094;2023-05-02T02:22:15;101396.53;;;10.45;100.00
19128;BME280;9696;53.686;10.094;2023-05-02T02:24:47;101399.50;;;10.52;100.00
19128;BME280;9696;53.686;10.094;2023-05-02T02:27:18;101405.31;;;10.33;100.00
19128;BME280;9696;53.686;10.094;2023-05-02T02:29:48;101398.81;;;10.15;100.00
19128;BME280;9696;53.686;10.094;2023-05-02T02:32:17;101408.78;;;10.10;100.00
19128;BME280;9696;53.686;10.094;2023-05-02T02:34:47;101422.16;;;9.94;100.00
19128;BME280;9696;53.686;10.094;2023-05-02T02:37:18;101436.56;;;9.76;100.00
19128;BME280;9696;53.686;10.094;2023-05-02T02:39:56;101443.53;;;9.64;100.00
19128;BME280;9696;53.686;10.094;2023-05-02T02:42:35;101450.16;;;9.44;100.00
19128;BME280;9696;53.686;10.094;2023-05-02T02:45:23;101447.78;;;9.29;100.00
19128;BME280;9696;53.686;10.094;2023-05-02T02:48:10;101466.00;;;9.30;100.00
19128;BME280;9696;53.686;10.094;2023-05-02T02:50:53;101465.00;;;9.20;100.00
19128;BME280;9696;53.686;10.094;2023-05-02T02:53:31;101474.31;;;9.12;100.00
19128;BME280;9696;53.686;10.094;2023-05-02T02:56:05;101482.56;;;9.06;100.00
19128;BME280;9696;53.686;10.094;2023-05-02T02:58:42;101486.03;;;9.06;100.00
19128;BME280;9696;53.686;10.094;2023-05-02T03:01:19;101495.31;;;8.85;100.00
19128;BME280;9696;53.686;10.094;2023-05-02T03:03:49;101507.25;;;8.76;100.00
19128;BME280;9696;53.686;10.094;2023-05-02T03:06:20;101492.13;;;8.55;100.00
19128;BME280;9696;53.686;10.094;2023-05-02T03:08:51;101511.72;;;8.35;100.00
19128;BME280;9696;53.686;10.094;2023-05-02T03:11:27;101504.28;;;8.15;100.00
19128;BME280;9696;53.686;10.094;2023-05-02T03:13:58;101523.47;;;8.01;100.00
19128;BME280;9696;53.686;10.094;2023-05-02T03:16:35;101526.19;;;7.85;100.00
19128;BME280;9696;53.686;10.094;2023-05-02T03:19:08;101522.47;;;7.89;100.00
19128;BME280;9696;53.686;10.094;2023-05-02T03:21:37;101531.69;;;7.95;100.00
19128;BME280;9696;53.686;10.094;2023-05-02T03:24:13;101520.81;;;7.74;100.00
19128;BME280;9696;53.686;10.094;2023-05-02T03:26:45;101533.38;;;7.68;100.00
19128;BME280;9696;53.686;10.094;2023-05-02T03:29:19;101530.97;;;7.65;100.00
19128;BME280;9696;53.686;10.094;2023-05-02T03:31:50;101546.44;;;7.68;100.00
19128;BME280;9696;53.686;10.094;2023-05-02T03:34:20;101539.28;;;7.57;100.00
19128;BME280;9696;53.686;10.094;2023-05-02T03:36:51;101543.84;;;7.53;100.00
19128;BME280;9696;53.686;10.094;2023-05-02T03:39:21;101543.34;;;7.47;100.00
19128;BME280;9696;53.686;10.094;2023-05-02T03:41:51;101545.25;;;7.45;100.00
19128;BME280;9696;53.686;10.094;2023-05-02T03:44:23;101542.06;;;7.40;100.00
19128;BME280;9696;53.686;10.094;2023-05-02T03:46:53;101553.81;;;7.47;100.00
19128;BME280;9696;53.686;10.094;2023-05-02T03:49:23;101556.50;;;7.59;100.00
19128;BME280;9696;53.686;10.094;2023-05-02T03:51:53;101548.97;;;7.41;100.00
19128;BME280;9696;53.686;10.094;2023-05-02T03:54:31;101556.88;;;7.39;100.00
19128;BME280;9696;53.686;10.094;2023-05-02T03:57:01;101561.25;;;7.39;100.00
19128;BME280;9696;53.686;10.094;2023-05-02T03:59:33;101571.16;;;7.48;100.00
19128;BME280;9696;53.686;10.094;2023-05-02T04:02:13;101571.41;;;7.43;100.00
19128;BME280;9696;53.686;10.094;2023-05-02T04:04:46;101568.72;;;7.45;100.00
19128;BME280;9696;53.686;10.094;2023-05-02T04:07:19;101575.41;;;7.35;100.00
19128;BME280;9696;53.686;10.094;2023-05-02T04:09:58;101576.19;;;7.37;100.00
19128;BME280;9696;53.686;10.094;2023-05-02T04:12:27;101582.72;;;7.44;100.00
19128;BME280;9696;53.686;10.094;2023-05-02T04:14:57;101591.84;;;7.37;100.00
19128;BME280;9696;53.686;10.094;2023-05-02T04:17:30;101594.44;;;7.51;100.00
19128;BME280;9696;53.686;10.094;2023-05-02T04:19:59;101597.91;;;7.51;100.00
19128;BME280;9696;53.686;10.094;2023-05-02T04:22:33;101600.91;;;7.45;100.00
19128;BME280;9696;53.686;10.094;2023-05-02T04:25:06;101609.47;;;7.47;100.00
19128;BME280;9696;53.686;10.094;2023-05-02T04:27:38;101612.34;;;7.43;100.00
19128;BME280;9696;53.686;10.094;2023-05-02T04:30:11;101616.16;;;7.37;100.00
19128;BME280;9696;53.686;10.094;2023-05-02T04:32:43;101619.78;;;7.35;100.00
19128;BME280;9696;53.686;10.094;2023-05-02T04:35:13;101617.84;;;7.38;100.00
19128;BME280;9696;53.686;10.094;2023-05-02T04:37:44;101609.25;;;7.36;100.00
19128;BME280;9696;53.686;10.094;2023-05-02T04:40:14;101626.16;;;7.59;100.00
19128;BME280;9696;53.686;10.094;2023-05-02T04:42:46;101626.41;;;7.40;100.00
19128;BME280;9696;53.686;10.094;2023-05-02T04:45:19;101639.41;;;7.56;100.00
19128;BME280;9696;53.686;10.094;2023-05-02T04:47:51;101636.53;;;7.46;100.00
19128;BME280;9696;53.686;10.094;2023-05-02T04:50:20;101648.34;;;7.38;100.00
19128;BME280;9696;53.686;10.094;2023-05-02T04:52:49;101653.28;;;7.42;100.00
19128;BME280;9696;53.686;10.094;2023-05-02T04:55:19;101655.34;;;7.51;100.00
19128;BME280;9696;53.686;10.094;2023-05-02T04:57:49;101657.69;;;7.56;100.00
19128;BME280;9696;53.686;10.094;2023-05-02T05:00:18;101667.19;;;7.57;100.00
19128;BME280;9696;53.686;10.094;2023-05-02T05:02:48;101664.06;;;7.66;100.00
19128;BME280;9696;53.686;10.094;2023-05-02T05:05:19;101673.53;;;7.53;100.00
19128;BME280;9696;53.686;10.094;2023-05-02T05:07:49;101682.28;;;7.52;100.00
19128;BME280;9696;53.686;10.094;2023-05-02T05:10:21;101675.78;;;7.59;100.00
19128;BME280;9696;53.686;10.094;2023-05-02T05:12:50;101691.88;;;7.51;100.00
19128;BME280;9696;53.686;10.094;2023-05-02T05:15:20;101685.56;;;7.55;100.00
19128;BME280;9696;53.686;10.094;2023-05-02T05:17:56;101689.47;;;7.48;100.00
19128;BME280;9696;53.686;10.094;2023-05-02T05:20:26;101696.41;;;7.34;100.00
19128;BME280;9696;53.686;10.094;2023-05-02T05:22:58;101704.06;;;7.37;100.00
19128;BME280;9696;53.686;10.094;2023-05-02T05:25:28;101702.47;;;7.34;100.00
19128;BME280;9696;53.686;10.094;2023-05-02T05:27:59;101703.28;;;7.35;100.00
19128;BME280;9696;53.686;10.094;2023-05-02T05:30:29;101699.94;;;7.33;100.00
19128;BME280;9696;53.686;10.094;2023-05-02T05:33:00;101708.28;;;7.24;100.00
19128;BME280;9696;53.686;10.094;2023-05-02T05:35:31;101708.41;;;7.22;100.00
19128;BME280;9696;53.686;10.094;2023-05-02T05:38:02;101724.13;;;7.21;100.00
19128;BME280;9696;53.686;10.094;2023-05-02T05:40:34;101722.53;;;7.18;100.00
19128;BME280;9696;53.686;10.094;2023-05-02T05:43:03;101727.28;;;7.41;100.00
19128;BME280;9696;53.686;10.094;2023-05-02T05:45:36;101732.84;;;7.35;100.00
19128;BME280;9696;53.686;10.094;2023-05-02T05:48:06;101738.50;;;7.28;100.00
19128;BME280;9696;53.686;10.094;2023-05-02T05:50:42;101741.63;;;7.34;100.00
19128;BME280;9696;53.686;10.094;2023-05-02T05:53:12;101742.19;;;7.39;100.00
19128;BME280;9696;53.686;10.094;2023-05-02T05:55:43;101739.56;;;7.39;100.00
19128;BME280;9696;53.686;10.094;2023-05-02T05:58:15;101738.88;;;7.51;100.00
19128;BME280;9696;53.686;10.094;2023-05-02T06:00:54;101744.94;;;7.52;100.00
19128;BME280;9696;53.686;10.094;2023-05-02T06:03:23;101744.31;;;7.63;100.00
19128;BME280;9696;53.686;10.094;2023-05-02T06:05:54;101749.97;;;7.55;100.00
19128;BME280;9696;53.686;10.094;2023-05-02T06:08:24;101747.78;;;7.63;100.00
19128;BME280;9696;53.686;10.094;2023-05-02T06:10:53;101758.47;;;7.74;100.00
19128;BME280;9696;53.686;10.094;2023-05-02T06:13:22;101753.19;;;7.60;100.00
19128;BME280;9696;53.686;10.094;2023-05-02T06:15:51;101762.78;;;7.59;100.00
19128;BME280;9696;53.686;10.094;2023-05-02T06:18:21;101770.16;;;7.67;100.00
19128;BME280;9696;53.686;10.094;2023-05-02T06:20:50;101775.91;;;7.88;100.00
19128;BME280;9696;53.686;10.094;2023-05-02T06:23:20;101773.03;;;7.63;100.00
19128;BME280;9696;53.686;10.094;2023-05-02T06:25:50;101781.28;;;7.71;100.00
19128;BME280;9696;53.686;10.094;2023-05-02T06:28:19;101774.13;;;7.74;100.00
19128;BME280;9696;53.686;10.094;2023-05-02T06:30:56;101784.88;;;7.54;100.00
19128;BME280;9696;53.686;10.094;2023-05-02T06:33:26;101797.16;;;7.52;100.00
19128;BME280;9696;53.686;10.094;2023-05-02T06:35:56;101783.09;;;7.54;100.00
19128;BME280;9696;53.686;10.094;2023-05-02T06:38:33;101794.53;;;7.52;100.00
19128;BME280;9696;53.686;10.094;2023-05-02T06:41:05;101809.34;;;7.67;100.00
19128;BME280;9696;53.686;10.094;2023-05-02T06:43:34;101805.75;;;7.84;100.00
19128;BME280;9696;53.686;10.094;2023-05-02T06:46:03;101808.56;;;7.81;100.00
19128;BME280;9696;53.686;10.094;2023-05-02T06:48:34;101815.28;;;7.85;100.00
19128;BME280;9696;53.686;10.094;2023-05-02T06:51:03;101816.13;;;7.85;100.00
19128;BME280;9696;53.686;10.094;2023-05-02T06:53:33;101820.41;;;7.86;100.00
19128;BME280;9696;53.686;10.094;2023-05-02T06:56:03;101816.28;;;8.12;100.00
19128;BME280;9696;53.686;10.094;2023-05-02T06:58:33;101835.44;;;8.13;100.00
19128;BME280;9696;53.686;10.094;2023-05-02T07:01:02;101832.53;;;8.33;100.00
19128;BME280;9696;53.686;10.094;2023-05-02T07:03:31;101838.44;;;8.21;100.00
19128;BME280;9696;53.686;10.094;2023-05-02T07:06:01;101843.59;;;8.06;100.00
19128;BME280;9696;53.686;10.094;2023-05-02T07:08:30;101849.13;;;8.32;100.00
19128;BME280;9696;53.686;10.094;2023-05-02T07:11:01;101858.47;;;7.90;100.00
19128;BME280;9696;53.686;10.094;2023-05-02T07:13:31;101863.97;;;8.01;100.00
19128;BME280;9696;53.686;10.094;2023-05-02T07:16:00;101864.22;;;7.97;100.00
19128;BME280;9696;53.686;10.094;2023-05-02T07:18:29;101869.97;;;8.18;100.00
19128;BME280;9696;53.686;10.094;2023-05-02T07:20:58;101864.38;;;8.24;100.00
19128;BME280;9696;53.686;10.094;2023-05-02T07:23:28;101870.31;;;8.12;100.00
19128;BME280;9696;53.686;10.094;2023-05-02T07:25:57;101864.38;;;8.24;100.00
19128;BME280;9696;53.686;10.094;2023-05-02T07:28:28;101868.66;;;8.40;100.00
19128;BME280;9696;53.686;10.094;2023-05-02T07:30:57;101866.59;;;8.16;100.00
19128;BME280;9696;53.686;10.094;2023-05-02T07:33:26;101881.91;;;8.37;100.00
19128;BME280;9696;53.686;10.094;2023-05-02T07:35:55;101881.47;;;8.45;100.00
19128;BME280;9696;53.686;10.094;2023-05-02T07:38:26;101883.78;;;8.35;100.00
19128;BME280;9696;53.686;10.094;2023-05-02T07:40:57;101889.31;;;8.45;100.00
19128;BME280;9696;53.686;10.094;2023-05-02T07:43:28;101893.63;;;8.30;100.00
19128;BME280;9696;53.686;10.094;2023-05-02T07:45:57;101885.19;;;8.55;100.00
19128;BME280;9696;53.686;10.094;2023-05-02T07:48:26;101888.13;;;8.79;100.00
19128;BME280;9696;53.686;10.094;2023-05-02T07:50:55;101889.41;;;8.28;100.00
19128;BME280;9696;53.686;10.094;2023-05-02T07:53:25;101895.75;;;8.24;100.00
19128;BME280;9696;53.686;10.094;2023-05-02T07:55:54;101903.81;;;8.65;100.00
19128;BME280;9696;53.686;10.094;2023-05-02T07:58:23;101905.97;;;8.72;100.00
19128;BME280;9696;53.686;10.094;2023-05-02T08:00:54;101901.66;;;8.57;100.00
19128;BME280;9696;53.686;10.094;2023-05-02T08:03:23;101907.56;;;8.61;100.00
19128;BME280;9696;53.686;10.094;2023-05-02T08:05:53;101914.56;;;8.60;100.00
19128;BME280;9696;53.686;10.094;2023-05-02T08:08:22;101908.75;;;8.69;100.00
19128;BME280;9696;53.686;10.094;2023-05-02T08:10:51;101921.41;;;8.91;100.00
19128;BME280;9696;53.686;10.094;2023-05-02T08:13:20;101926.63;;;8.77;100.00
19128;BME280;9696;53.686;10.094;2023-05-02T08:15:49;101920.56;;;8.90;100.00
19128;BME280;9696;53.686;10.094;2023-05-02T08:18:19;101930.75;;;8.81;100.00
19128;BME280;9696;53.686;10.094;2023-05-02T08:20:48;101933.75;;;9.03;100.00
19128;BME280;9696;53.686;10.094;2023-05-02T08:23:18;101927.19;;;8.82;100.00
19128;BME280;9696;53.686;10.094;2023-05-02T08:25:47;101941.59;;;9.17;100.00
19128;BME280;9696;53.686;10.094;2023-05-02T08:28:16;101945.50;;;9.38;100.00
19128;BME280;9696;53.686;10.094;2023-05-02T08:30:46;101942.13;;;9.36;100.00
19128;BME280;9696;53.686;10.094;2023-05-02T08:33:15;101947.28;;;8.95;100.00
19128;BME280;9696;53.686;10.094;2023-05-02T08:35:46;101946.28;;;9.12;100.00
19128;BME280;9696;53.686;10.094;2023-05-02T08:38:16;101961.22;;;9.10;100.00
19128;BME280;9696;53.686;10.094;2023-05-02T08:40:45;101956.84;;;9.39;100.00
19128;BME280;9696;53.686;10.094;2023-05-02T08:43:16;101963.75;;;9.12;100.00
19128;BME280;9696;53.686;10.094;2023-05-02T08:45:45;101964.00;;;9.50;100.00
19128;BME280;9696;53.686;10.094;2023-05-02T08:48:15;101954.09;;;9.55;100.00
19128;BME280;9696;53.686;10.094;2023-05-02T08:50:46;101962.72;;;9.42;100.00
19128;BME280;9696;53.686;10.094;2023-05-02T08:53:17;101964.84;;;9.50;100.00
19128;BME280;9696;53.686;10.094;2023-05-02T08:55:48;101962.09;;;11.11;100.00
19128;BME280;9696;53.686;10.094;2023-05-02T08:58:17;101972.38;;;10.24;100.00
19128;BME280;9696;53.686;10.094;2023-05-02T09:00:48;101966.75;;;9.89;100.00
19128;BME280;9696;53.686;10.094;2023-05-02T09:03:25;101972.88;;;10.16;100.00
19128;BME280;9696;53.686;10.094;2023-05-02T09:06:05;101974.16;;;9.82;100.00
19128;BME280;9696;53.686;10.094;2023-05-02T09:08:35;101969.22;;;10.05;100.00
19128;BME280;9696;53.686;10.094;2023-05-02T09:11:05;101987.25;;;10.23;100.00
19128;BME280;9696;53.686;10.094;2023-05-02T09:13:36;101987.47;;;10.60;100.00
19128;BME280;9696;53.686;10.094;2023-05-02T09:16:07;101987.56;;;10.46;100.00
19128;BME280;9696;53.686;10.094;2023-05-02T09:18:38;101995.09;;;9.97;100.00
19128;BME280;9696;53.686;10.094;2023-05-02T09:21:12;101989.19;;;9.93;100.00
19128;BME280;9696;53.686;10.094;2023-05-02T09:23:42;102002.38;;;10.06;100.00
19128;BME280;9696;53.686;10.094;2023-05-02T09:26:14;102007.69;;;10.04;100.00
19128;BME280;9696;53.686;10.094;2023-05-02T09:28:44;102002.59;;;9.88;100.00
19128;BME280;9696;53.686;10.094;2023-05-02T09:31:15;101999.69;;;10.34;100.00
19128;BME280;9696;53.686;10.094;2023-05-02T09:34:07;102003.94;;;10.49;100.00
19128;BME280;9696;53.686;10.094;2023-05-02T09:36:41;102005.81;;;11.12;100.00
19128;BME280;9696;53.686;10.094;2023-05-02T09:39:12;102016.41;;;10.46;100.00
19128;BME280;9696;53.686;10.094;2023-05-02T09:41:41;102011.75;;;10.76;100.00
19128;BME280;9696;53.686;10.094;2023-05-02T09:44:11;102020.63;;;10.21;100.00
19128;BME280;9696;53.686;10.094;2023-05-02T09:46:42;102023.34;;;10.06;100.00
19128;BME280;9696;53.686;10.094;2023-05-02T09:49:11;102019.94;;;9.77;100.00
19128;BME280;9696;53.686;10.094;2023-05-02T09:51:43;102025.69;;;10.64;100.00
19128;BME280;9696;53.686;10.094;2023-05-02T09:54:13;102025.97;;;10.06;100.00
19128;BME280;9696;53.686;10.094;2023-05-02T09:56:52;102035.03;;;10.14;100.00
19128;BME280;9696;53.686;10.094;2023-05-02T09:59:24;102041.22;;;10.54;100.00
19128;BME280;9696;53.686;10.094;2023-05-02T10:01:55;102035.06;;;10.41;100.00
19128;BME280;9696;53.686;10.094;2023-05-02T10:04:25;102035.56;;;10.33;100.00
19128;BME280;9696;53.686;10.094;2023-05-02T10:06:56;102040.56;;;10.10;100.00
19128;BME280;9696;53.686;10.094;2023-05-02T10:09:26;102039.06;;;10.73;100.00
19128;BME280;9696;53.686;10.094;2023-05-02T10:12:03;102031.97;;;11.39;100.00
19128;BME280;9696;53.686;10.094;2023-05-02T10:14:39;102032.69;;;11.53;100.00
19128;BME280;9696;53.686;10.094;2023-05-02T10:17:13;102037.59;;;10.95;100.00
19128;BME280;9696;53.686;10.094;2023-05-02T10:19:50;102036.63;;;10.70;100.00
19128;BME280;9696;53.686;10.094;2023-05-02T10:22:23;102048.69;;;10.33;100.00
19128;BME280;9696;53.686;10.094;2023-05-02T10:24:53;102044.00;;;10.51;100.00
19128;BME280;9696;53.686;10.094;2023-05-02T10:27:22;102044.03;;;11.03;100.00
19128;BME280;9696;53.686;10.094;2023-05-02T10:29:52;102033.53;;;12.15;100.00
19128;BME280;9696;53.686;10.094;2023-05-02T10:32:22;102022.22;;;13.31;100.00
19128;BME280;9696;53.686;10.094;2023-05-02T10:34:54;102026.41;;;13.55;100.00
19128;BME280;9696;53.686;10.094;2023-05-02T10:37:26;102034.47;;;13.08;100.00
19128;BME280;9696;53.686;10.094;2023-05-02T10:39:56;102048.13;;;11.58;100.00
19128;BME280;9696;53.686;10.094;2023-05-02T10:42:27;102044.13;;;11.90;100.00
19128;BME280;9696;53.686;10.094;2023-05-02T10:44:57;102059.69;;;11.55;100.00
19128;BME280;9696;53.686;10.094;2023-05-02T10:47:28;102056.97;;;11.31;100.00
19128;BME280;9696;53.686;10.094;2023-05-02T10:50:00;102057.38;;;11.00;100.00
19128;BME280;9696;53.686;10.094;2023-05-02T10:52:33;102059.28;;;10.71;100.00
19128;BME280;9696;53.686;10.094;2023-05-02T10:55:19;102067.66;;;11.03;100.00
19128;BME280;9696;53.686;10.094;2023-05-02T10:58:19;102071.56;;;10.71;100.00
19128;BME280;9696;53.686;10.094;2023-05-02T11:00:49;102072.06;;;10.63;100.00
19128;BME280;9696;53.686;10.094;2023-05-02T11:03:52;102074.81;;;11.01;100.00
19128;BME280;9696;53.686;10.094;2023-05-02T11:06:21;102085.81;;;10.94;100.00
19128;BME280;9696;53.686;10.094;2023-05-02T11:08:52;102081.16;;;10.45;100.00
19128;BME280;9696;53.686;10.094;2023-05-02T11:11:41;102090.50;;;11.28;100.00
19128;BME280;9696;53.686;10.094;2023-05-02T11:14:12;102080.09;;;11.14;100.00
19128;BME280;9696;53.686;10.094;2023-05-02T11:17:08;102076.34;;;10.91;100.00
19128;BME280;9696;53.686;10.094;2023-05-02T11:20:17;102082.78;;;11.00;100.00
19128;BME280;9696;53.686;10.094;2023-05-02T11:22:47;102092.13;;;11.04;100.00
19128;BME280;9696;53.686;10.094;2023-05-02T11:25:34;102084.72;;;11.48;100.00
19128;BME280;9696;53.686;10.094;2023-05-02T11:28:06;102078.66;;;11.73;100.00
19128;BME280;9696;53.686;10.094;2023-05-02T11:30:45;102084.31;;;11.92;100.00
19128;BME280;9696;53.686;10.094;2023-05-02T11:33:18;102082.66;;;10.88;100.00
19128;BME280;9696;53.686;10.094;2023-05-02T11:35:47;102085.31;;;11.01;100.00
19128;BME280;9696;53.686;10.094;2023-05-02T11:38:19;102095.44;;;10.80;100.00
19128;BME280;9696;53.686;10.094;2023-05-02T11:40:58;102081.13;;;10.72;100.00
19128;BME280;9696;53.686;10.094;2023-05-02T11:43:28;102100.75;;;10.66;100.00
19128;BME280;9696;53.686;10.094;2023-05-02T11:46:00;102105.06;;;10.94;100.00
19128;BME280;9696;53.686;10.094;2023-05-02T11:48:30;102107.81;;;10.78;100.00
19128;BME280;9696;53.686;10.094;2023-05-02T11:51:00;102122.19;;;11.12;100.00
19128;BME280;9696;53.686;10.094;2023-05-02T11:53:39;102111.91;;;10.82;100.00
19128;BME280;9696;53.686;10.094;2023-05-02T11:56:10;102122.41;;;10.70;100.00
19128;BME280;9696;53.686;10.094;2023-05-02T11:58:40;102123.50;;;11.32;100.00
19128;BME280;9696;53.686;10.094;2023-05-02T12:01:12;102128.75;;;10.93;100.00
19128;BME280;9696;53.686;10.094;2023-05-02T12:03:42;102127.38;;;11.39;100.00
19128;BME280;9696;53.686;10.094;2023-05-02T12:06:13;102129.66;;;11.18;100.00
19128;BME280;9696;53.686;10.094;2023-05-02T12:08:44;102134.91;;;11.06;100.00
19128;BME280;9696;53.686;10.094;2023-05-02T12:11:15;102136.00;;;10.89;100.00
19128;BME280;9696;53.686;10.094;2023-05-02T12:13:45;102130.06;;;10.32;100.00
19128;BME280;9696;53.686;10.094;2023-05-02T12:16:16;102140.84;;;10.95;100.00
19128;BME280;9696;53.686;10.094;2023-05-02T12:18:46;102131.44;;;10.78;100.00
19128;BME280;9696;53.686;10.094;2023-05-02T12:21:16;102142.47;;;10.83;100.00
19128;BME280;9696;53.686;10.094;2023-05-02T12:23:46;102139.66;;;10.86;100.00
19128;BME280;9696;53.686;10.094;2023-05-02T12:26:18;102153.50;;;11.15;100.00
19128;BME280;9696;53.686;10.094;2023-05-02T12:28:50;102149.22;;;10.87;100.00
19128;BME280;9696;53.686;10.094;2023-05-02T12:31:22;102153.59;;;10.74;100.00
19128;BME280;9696;53.686;10.094;2023-05-02T12:33:53;102148.81;;;11.20;100.00
19128;BME280;9696;53.686;10.094;2023-05-02T12:36:25;102150.84;;;11.55;100.00
19128;BME280;9696;53.686;10.094;2023-05-02T12:38:56;102153.38;;;11.56;100.00
19128;BME280;9696;53.686;10.094;2023-05-02T12:41:35;102156.41;;;11.38;100.00
19128;BME280;9696;53.686;10.094;2023-05-02T12:44:05;102157.16;;;10.73;100.00
19128;BME280;9696;53.686;10.094;2023-05-02T12:46:35;102169.66;;;10.82;100.00
19128;BME280;9696;53.686;10.094;2023-05-02T12:49:05;102161.41;;;10.62;100.00
19128;BME280;9696;53.686;10.094;2023-05-02T12:51:35;102174.59;;;10.74;100.00
19128;BME280;9696;53.686;10.094;2023-05-02T12:54:05;102173.59;;;11.16;100.00
19128;BME280;9696;53.686;10.094;2023-05-02T12:56:42;102175.81;;;10.96;100.00
19128;BME280;9696;53.686;10.094;2023-05-02T12:59:26;102182.69;;;11.11;100.00
19128;BME280;9696;53.686;10.094;2023-05-02T13:01:55;102183.28;;;11.28;100.00
19128;BME280;9696;53.686;10.094;2023-05-02T13:04:33;102174.28;;;11.45;100.00
19128;BME280;9696;53.686;10.094;2023-05-02T13:07:03;102179.69;;;11.81;100.00
19128;BME280;9696;53.686;10.094;2023-05-02T13:09:32;102179.81;;;11.93;100.00
19128;BME280;9696;53.686;10.094;2023-05-02T13:12:03;102188.50;;;11.16;100.00